Terminal Aerodrome Forecast
Issued by NWS

Home | Current Version | Previous Version | Text Only | Print | Product List | Glossary On
Versions: 1 2 3 4 5 6 7 8 9 10 11 12 13 14
000
FTUS44 KLIX 241741
TAFHDC
TAF
KHDC 241741Z 2418/2518 23010G20KT P6SM TSRA BKN025CB
     FM242100 28006KT P6SM BKN020 OVC025
      TEMPO 2421/2424 4SM -TSRA OVC007CB
     FM250000 VRB03KT P6SM VCTS BKN020CB BKN030
     FM250500 VRB03KT P6SM BKN015 BKN025 PROB30 2505/2510 4SM -TSRA
      OVC003CB
     FM251000 VRB03KT P6SM BKN012 PROB30 2510/2512 4SM -TSRA
      OVC003CB=

USA.gov is the U.S. government's official web portal to all federal, state and local government web resources and services.